< < Back
Terminal Aerodrome Forecast


Current Version              Previous Versions:   1  2  3  4  5  6  7  8  9  

Terminal Aerodrome Forecast

803
FTUS42 KGSP 201700
TAFGSP
TAF
KGSP 201740Z 2018/2118 06010KT P6SM FEW070 SCT250
     FM210300 03003KT P6SM SCT250
     FM211000 30003KT P6SM FEW250
     FM211400 27007KT P6SM FEW070 SCT250=

Latest METAR

789
SAUS70 KWBC 202000 RRC
MTRGSP
METAR KGSP 201953Z 07008KT 10SM CLR 27/14 A3008 RMK AO2 SLP177
T02670144


USA.gov is the U.S. government's official web portal to all federal, state and local government web resources and services.